Time;durP1;ratioP1;P1;durP2;ratioP2;P2;SDS_P1;SDS_P2;PMS_P1;PMS_P2;Temp;Humidity;BMP_temperature;BMP_pressure;BME280_temperature;BME280_humidity;BME280_pressure;Samples;Min_cycle;Max_cycle;Signal;HPM_P1;HPM_P2
2021/01/18 00:01:00;;;;;;;87.22;30.00;;;-17.00;64.60;;;;;;5014982;28;20028;-88
2021/01/18 00:03:25;;;;;;;94.28;32.00;;;-17.10;65.80;;;;;;5015415;28;20017;-89
2021/01/18 00:05:51;;;;;;;89.60;31.20;;;-17.10;66.10;;;;;;5017434;28;20071;-90
2021/01/18 00:08:17;;;;;;;100.57;32.13;;;-17.20;65.90;;;;;;5013437;28;20091;-90
2021/01/18 00:10:42;;;;;;;105.15;34.90;;;-17.20;66.60;;;;;;5031673;28;20364;-88
2021/01/18 00:13:08;;;;;;;102.15;32.38;;;-17.10;67.20;;;;;;5015306;28;20029;-90
2021/01/18 00:15:34;;;;;;;81.50;29.00;;;-17.20;66.80;;;;;;5016862;28;20083;-88
2021/01/18 00:17:59;;;;;;;78.15;27.42;;;-17.20;65.60;;;;;;5017010;28;20078;-89
2021/01/18 00:20:25;;;;;;;99.72;31.40;;;-17.30;64.70;;;;;;5029858;28;20036;-89
2021/01/18 00:22:51;;;;;;;80.07;27.48;;;-17.30;64.70;;;;;;5032650;28;20033;-89
2021/01/18 00:25:24;;;;;;;83.80;29.50;;;-17.20;64.50;;;;;;5031576;28;20022;-89
2021/01/18 00:27:51;;;;;;;82.90;29.55;;;-17.20;64.10;;;;;;5029007;28;20103;-89
2021/01/18 00:30:21;;;;;;;100.43;30.23;;;-17.20;63.80;;;;;;5012832;28;20411;-89
2021/01/18 00:32:48;;;;;;;89.55;30.83;;;-17.30;63.40;;;;;;5015674;28;20026;-90
2021/01/18 00:35:15;;;;;;;80.70;27.13;;;-17.40;65.20;;;;;;5011040;28;20022;-89
2021/01/18 00:37:52;;;;;;;87.00;29.23;;;-17.40;64.80;;;;;;5014807;28;20083;-88
2021/01/18 00:40:20;;;;;;;85.28;27.40;;;-17.40;65.00;;;;;;5033763;28;20108;-89
2021/01/18 00:42:46;;;;;;;78.28;28.17;;;-17.40;64.30;;;;;;5012540;28;20074;-90
2021/01/18 00:45:14;;;;;;;93.43;28.60;;;-17.40;64.40;;;;;;5028014;28;20449;-89
2021/01/18 00:47:40;;;;;;;97.22;31.23;;;-17.30;64.10;;;;;;5012434;28;20057;-89
2021/01/18 00:50:07;;;;;;;93.63;28.48;;;-17.40;63.80;;;;;;5014779;28;20051;-89
2021/01/18 00:52:33;;;;;;;93.38;32.25;;;-17.30;63.60;;;;;;5016853;28;20022;-88
2021/01/18 00:54:58;;;;;;;110.32;32.28;;;-17.30;63.00;;;;;;5035487;28;20164;-88
2021/01/18 00:57:34;;;;;;;106.93;33.63;;;-17.40;63.60;;;;;;5012790;28;20044;-89
2021/01/18 00:59:59;;;;;;;115.25;35.80;;;-17.50;64.80;;;;;;5017125;28;20025;-88
2021/01/18 01:02:25;;;;;;;108.63;33.28;;;-17.60;64.30;;;;;;5016140;28;20030;-87
2021/01/18 01:04:51;;;;;;;129.50;40.20;;;-17.60;64.50;;;;;;5033017;28;20378;-89
2021/01/18 01:07:17;;;;;;;108.28;36.05;;;-17.70;64.60;;;;;;5017368;28;20026;-90
2021/01/18 01:09:42;;;;;;;116.07;38.03;;;-17.70;64.70;;;;;;5017998;28;20017;-89
2021/01/18 01:12:08;;;;;;;118.07;40.05;;;-17.70;65.80;;;;;;5018404;28;20032;-89
2021/01/18 01:14:34;;;;;;;112.00;40.67;;;-17.60;66.70;;;;;;5017336;28;20021;-90
2021/01/18 01:16:59;;;;;;;118.40;38.63;;;-17.60;66.60;;;;;;5017062;28;20137;-89
2021/01/18 01:19:25;;;;;;;121.97;41.75;;;-17.60;65.30;;;;;;5016959;28;20091;-88
2021/01/18 01:21:51;;;;;;;140.40;42.67;;;-17.70;64.30;;;;;;5015926;28;20357;-88
2021/01/18 01:24:19;;;;;;;128.05;39.22;;;-17.70;63.90;;;;;;5031258;28;20026;-89
2021/01/18 01:26:45;;;;;;;114.32;38.30;;;-17.70;64.90;;;;;;5015038;28;20029;-88
2021/01/18 01:29:11;;;;;;;144.63;44.47;;;-17.80;64.60;;;;;;5014264;28;20104;-88
2021/01/18 01:31:37;;;;;;;139.60;46.35;;;-17.80;65.90;;;;;;5019400;28;20116;-88
2021/01/18 01:34:02;;;;;;;135.15;43.75;;;-17.90;65.10;;;;;;5016727;28;20475;-89
2021/01/18 01:36:28;;;;;;;141.00;45.35;;;-17.90;64.70;;;;;;5015444;28;20064;-88
2021/01/18 01:38:54;;;;;;;139.82;45.85;;;-18.00;65.20;;;;;;5018469;28;20045;-88
2021/01/18 01:41:20;;;;;;;143.25;45.97;;;-18.00;64.80;;;;;;5014057;28;20022;-89
2021/01/18 01:43:45;;;;;;;138.30;44.30;;;-18.00;64.40;;;;;;5015811;28;20100;-87
2021/01/18 01:46:11;;;;;;;122.88;42.17;;;-18.00;65.10;;;;;;5027063;28;20037;-88
2021/01/18 01:48:37;;;;;;;124.10;41.72;;;-18.10;64.60;;;;;;5048182;28;20051;-90
2021/01/18 01:51:03;;;;;;;155.35;46.15;;;-18.00;65.30;;;;;;5033934;28;20048;-88
2021/01/18 01:53:30;;;;;;;154.98;48.10;;;-18.00;65.10;;;;;;5033492;28;20471;-89
2021/01/18 01:55:58;;;;;;;168.57;53.33;;;-18.00;66.10;;;;;;5034164;28;20087;-89
2021/01/18 01:58:25;;;;;;;165.05;53.55;;;-18.10;64.80;;;;;;5033472;28;20036;-89
2021/01/18 02:00:51;;;;;;;165.90;51.95;;;-17.90;64.60;;;;;;5035649;28;20032;-88
2021/01/18 02:03:52;;;;;;;165.63;50.78;;;-17.90;64.20;;;;;;5030311;28;20406;-90
2021/01/18 02:06:19;;;;;;;175.07;51.35;;;-17.90;64.10;;;;;;4970354;28;20125;-91
2021/01/18 02:08:45;;;;;;;171.23;53.00;;;-18.00;64.10;;;;;;4953969;28;20031;-87
2021/01/18 02:11:11;;;;;;;180.38;51.30;;;-18.00;64.90;;;;;;4954918;28;20042;-89
2021/01/18 02:14:05;;;;;;;164.32;49.60;;;-18.10;64.10;;;;;;4971650;28;20142;-88
2021/01/18 02:16:41;;;;;;;167.57;52.17;;;-18.10;64.00;;;;;;4974902;28;20042;-89
2021/01/18 02:19:35;;;;;;;173.68;56.92;;;-18.10;64.80;;;;;;4966258;28;20084;-89
2021/01/18 02:22:29;;;;;;;163.70;56.25;;;-18.20;64.40;;;;;;4971163;28;20059;-89
2021/01/18 02:25:22;;;;;;;178.57;53.72;;;-18.20;65.10;;;;;;4973577;28;20029;-89
2021/01/18 02:27:57;;;;;;;180.68;57.13;;;-18.10;65.40;;;;;;4970000;28;20058;-89
2021/01/18 02:30:49;;;;;;;186.52;60.50;;;-18.20;64.30;;;;;;4958317;28;20027;-88
2021/01/18 02:33:29;;;;;;;177.65;58.10;;;-18.20;64.00;;;;;;4970821;28;20503;-89
2021/01/18 02:36:03;;;;;;;176.80;56.75;;;-18.20;63.30;;;;;;4959197;28;20042;-89
2021/01/18 02:38:36;;;;;;;165.23;53.72;;;-18.20;63.60;;;;;;4973192;28;20039;-89
2021/01/18 02:41:27;;;;;;;188.85;58.85;;;-18.20;62.90;;;;;;4977816;28;20031;-89
2021/01/18 02:43:58;;;;;;;193.68;57.75;;;-18.30;64.60;;;;;;5030756;28;20037;-88
2021/01/18 02:46:24;;;;;;;202.88;65.78;;;-18.20;65.20;;;;;;5016119;28;20017;-88
2021/01/18 02:48:50;;;;;;;214.88;68.57;;;-18.30;64.50;;;;;;5019280;28;20029;-88
2021/01/18 02:51:19;;;;;;;193.10;65.20;;;-18.50;63.60;;;;;;5014928;28;20121;-88
2021/01/18 02:53:59;;;;;;;219.32;63.47;;;-18.50;63.60;;;;;;5031432;28;20022;-88
2021/01/18 02:56:29;;;;;;;154.90;58.33;;;-18.40;63.80;;;;;;5030884;28;20072;-89
2021/01/18 02:58:57;;;;;;;201.50;63.50;;;-18.40;64.90;;;;;;5033762;28;20826;-89
2021/01/18 03:01:33;;;;;;;227.80;67.85;;;-18.40;63.90;;;;;;5013427;28;20075;-89
2021/01/18 03:04:05;;;;;;;218.48;70.90;;;-18.40;64.20;;;;;;5016966;28;20109;-88
2021/01/18 03:06:47;;;;;;;230.73;73.45;;;-18.50;64.40;;;;;;5029417;28;20104;-90
2021/01/18 03:09:29;;;;;;;227.35;68.57;;;-18.60;64.20;;;;;;5015326;28;20053;-89
2021/01/18 03:12:04;;;;;;;228.73;69.35;;;-18.60;64.20;;;;;;5007800;28;20049;-89
2021/01/18 03:14:52;;;;;;;217.02;66.20;;;-18.70;64.40;;;;;;5030367;28;20422;-88
2021/01/18 03:17:26;;;;;;;222.70;66.95;;;-18.70;63.90;;;;;;5016702;28;20038;-89
2021/01/18 03:19:54;;;;;;;217.68;72.18;;;-18.80;64.00;;;;;;5014141;28;20112;-88
2021/01/18 03:22:28;;;;;;;205.27;67.85;;;-18.70;63.70;;;;;;5033432;28;20081;-89
2021/01/18 03:25:01;;;;;;;209.98;67.03;;;-18.80;63.50;;;;;;5012200;28;20025;-88
2021/01/18 03:27:27;;;;;;;210.20;67.35;;;-18.80;63.50;;;;;;5012216;28;20463;-89
2021/01/18 03:29:52;;;;;;;203.30;64.85;;;-18.80;63.50;;;;;;5013711;28;20026;-89
2021/01/18 03:32:18;;;;;;;240.18;72.07;;;-18.80;63.70;;;;;;5026454;28;20029;-89
2021/01/18 03:34:44;;;;;;;228.32;70.10;;;-18.70;63.30;;;;;;5015119;28;20083;-88
2021/01/18 03:37:10;;;;;;;226.82;68.13;;;-18.70;63.50;;;;;;5031952;28;20029;-88
2021/01/18 03:39:38;;;;;;;236.48;71.25;;;-18.60;63.60;;;;;;5030853;28;20060;-88
2021/01/18 03:42:04;;;;;;;216.05;71.28;;;-18.70;63.70;;;;;;5029021;28;20040;-88
2021/01/18 03:44:29;;;;;;;236.10;74.22;;;-18.70;64.20;;;;;;5028823;28;20026;-89
2021/01/18 03:46:55;;;;;;;234.43;75.47;;;-18.70;64.80;;;;;;5016098;28;20148;-89
2021/01/18 03:49:21;;;;;;;273.42;78.38;;;-18.80;64.30;;;;;;5013721;28;21513;-90
2021/01/18 03:51:46;;;;;;;218.45;69.65;;;-18.80;64.10;;;;;;5013477;28;20021;-89
2021/01/18 03:54:12;;;;;;;250.70;74.32;;;-18.70;64.00;;;;;;5014752;28;20112;-88
2021/01/18 03:56:42;;;;;;;235.25;76.00;;;-18.70;63.70;;;;;;5014799;28;20068;-88
2021/01/18 03:59:08;;;;;;;260.35;77.30;;;-18.70;63.30;;;;;;5013521;28;20100;-86
2021/01/18 04:01:40;;;;;;;278.13;79.35;;;-18.70;62.80;;;;;;5013206;28;20041;-89
2021/01/18 04:04:06;;;;;;;265.73;82.30;;;-18.70;63.40;;;;;;5013311;28;20095;-87
2021/01/18 04:06:41;;;;;;;262.10;80.07;;;-18.80;63.50;;;;;;5018179;28;20017;-88
2021/01/18 04:09:07;;;;;;;242.20;75.88;;;-18.80;64.30;;;;;;5028093;28;20071;-89
2021/01/18 04:11:33;;;;;;;269.98;81.28;;;-18.80;63.50;;;;;;5028985;28;20029;-89
2021/01/18 04:13:59;;;;;;;271.08;78.97;;;-18.90;62.90;;;;;;5031337;28;20063;-89
2021/01/18 04:16:24;;;;;;;283.63;83.50;;;-18.80;63.00;;;;;;5031337;28;20045;-89
2021/01/18 04:18:51;;;;;;;291.23;85.63;;;-18.80;62.30;;;;;;5012605;28;20033;-89
2021/01/18 04:21:17;;;;;;;252.05;78.72;;;-18.80;63.10;;;;;;5013939;28;20040;-88
2021/01/18 04:23:43;;;;;;;290.17;86.90;;;-18.80;63.90;;;;;;5028953;28;20044;-89
2021/01/18 04:26:09;;;;;;;286.60;85.60;;;-18.90;64.00;;;;;;5011645;28;20476;-89
2021/01/18 04:28:35;;;;;;;275.60;81.10;;;-18.80;65.30;;;;;;5033849;28;20053;-90
2021/01/18 04:31:04;;;;;;;268.65;78.88;;;-18.70;65.10;;;;;;5015665;28;20036;-89
2021/01/18 04:33:30;;;;;;;260.60;81.78;;;-18.80;64.20;;;;;;5033896;28;20025;-88
2021/01/18 04:35:56;;;;;;;266.50;81.20;;;-18.90;64.40;;;;;;5020078;28;20021;-89
2021/01/18 04:38:23;;;;;;;232.65;75.90;;;-19.00;64.90;;;;;;5033915;28;20022;-88
2021/01/18 04:40:49;;;;;;;259.08;80.43;;;-19.10;64.90;;;;;;5016066;28;20029;-89
2021/01/18 04:43:16;;;;;;;270.20;78.72;;;-19.10;63.70;;;;;;5036576;28;20021;-89
2021/01/18 04:45:42;;;;;;;257.75;84.13;;;-19.00;63.30;;;;;;5031419;28;20037;-88
2021/01/18 04:48:13;;;;;;;276.02;82.10;;;-19.00;63.40;;;;;;5016219;28;20471;-88
2021/01/18 04:50:38;;;;;;;;;;;-18.90;63.00;;;;;;5046273;28;20037;-87
2021/01/18 04:53:14;;;;;;;223.00;65.85;;;-18.80;62.90;;;;;;5028715;28;20123;-87
2021/01/18 04:55:43;;;;;;;264.00;78.22;;;-18.60;62.30;;;;;;5042203;28;20025;-88
2021/01/18 04:58:19;;;;;;;269.35;80.00;;;-18.60;61.70;;;;;;5038701;28;20040;-88
2021/01/18 05:00:46;;;;;;;278.90;86.55;;;-18.70;61.00;;;;;;5040735;28;20025;-90
2021/01/18 05:03:14;;;;;;;266.15;85.00;;;-18.90;60.40;;;;;;5020202;28;20029;-87
2021/01/18 05:05:52;;;;;;;272.35;82.60;;;-19.00;61.90;;;;;;5040329;28;20030;-90
2021/01/18 05:08:51;;;;;;;269.15;83.30;;;-19.00;63.60;;;;;;5024297;28;20128;-90
2021/01/18 05:11:17;;;;;;;260.45;83.47;;;-19.00;62.50;;;;;;5035309;28;20079;-89
2021/01/18 05:13:44;;;;;;;283.42;87.70;;;-19.10;61.80;;;;;;5022705;28;20033;-89
2021/01/18 05:16:11;;;;;;;304.20;88.78;;;-19.00;62.10;;;;;;5035137;28;20545;-89
2021/01/18 05:18:40;;;;;;;295.17;88.72;;;-19.20;62.40;;;;;;5021396;28;20040;-88
2021/01/18 05:21:08;;;;;;;267.23;84.28;;;-19.10;63.00;;;;;;5036613;28;20033;-89
2021/01/18 05:23:41;;;;;;;268.00;80.80;;;-19.20;63.00;;;;;;5020137;28;20402;-88
2021/01/18 05:26:21;;;;;;;272.20;86.45;;;-19.20;62.90;;;;;;5034986;28;20505;-89
2021/01/18 05:28:49;;;;;;;243.43;81.35;;;-19.20;63.50;;;;;;5008377;28;20065;-88
2021/01/18 05:31:27;;;;;;;248.98;81.93;;;-19.20;62.70;;;;;;5019738;28;20022;-89
2021/01/18 05:34:10;;;;;;;253.82;78.45;;;-19.20;62.40;;;;;;5031582;28;20037;-88
2021/01/18 05:36:40;;;;;;;254.93;76.18;;;-19.30;62.10;;;;;;5013339;28;20026;-88
2021/01/18 05:39:32;;;;;;;245.25;81.00;;;-19.20;61.80;;;;;;5021152;28;20025;-88
2021/01/18 05:41:59;;;;;;;258.35;75.55;;;-19.10;62.50;;;;;;5037404;28;20014;-88
2021/01/18 05:44:35;;;;;;;255.57;77.47;;;-19.20;62.30;;;;;;5036559;28;20029;-89
2021/01/18 05:47:05;;;;;;;242.88;75.75;;;-19.20;61.90;;;;;;5030249;28;20046;-88
2021/01/18 05:49:50;;;;;;;278.67;82.18;;;-19.20;61.40;;;;;;5018645;28;20021;-88
2021/01/18 05:52:28;;;;;;;236.82;76.90;;;-19.10;61.10;;;;;;5037618;28;20478;-89
2021/01/18 05:55:30;;;;;;;247.20;79.88;;;-19.10;61.20;;;;;;5034816;28;20096;-90
2021/01/18 05:58:03;;;;;;;245.48;75.03;;;-19.10;60.80;;;;;;4984130;28;20033;-88
2021/01/18 06:00:37;;;;;;;253.77;77.60;;;-19.10;60.50;;;;;;4987758;28;20058;-89
2021/01/18 06:03:10;;;;;;;244.38;79.80;;;-19.10;60.70;;;;;;4976454;28;20058;-89
2021/01/18 06:05:38;;;;;;;256.88;81.00;;;-19.20;61.10;;;;;;4992623;28;20527;-89
2021/01/18 06:08:14;;;;;;;224.25;74.07;;;-19.30;61.90;;;;;;4984420;28;20026;-89
2021/01/18 06:10:41;;;;;;;256.38;75.38;;;-19.30;61.80;;;;;;4970106;28;20023;-88
2021/01/18 06:13:20;;;;;;;273.80;83.28;;;-19.30;61.20;;;;;;4981968;28;20504;-88
2021/01/18 06:15:47;;;;;;;271.25;80.57;;;-19.30;61.20;;;;;;4968007;28;20117;-88
2021/01/18 06:18:14;;;;;;;293.98;85.07;;;-19.30;61.60;;;;;;4985569;28;20041;-88
2021/01/18 06:20:41;;;;;;;262.95;87.28;;;-19.30;62.00;;;;;;4990379;28;20038;-90
2021/01/18 06:23:08;;;;;;;247.40;77.47;;;-19.40;62.80;;;;;;4971128;28;20030;-88
2021/01/18 06:25:35;;;;;;;243.25;75.35;;;-19.40;63.10;;;;;;4969051;28;20053;-88
2021/01/18 06:28:01;;;;;;;264.83;83.57;;;-19.10;62.50;;;;;;4972303;28;20464;-89
2021/01/18 06:30:31;;;;;;;242.40;80.88;;;-19.20;61.50;;;;;;4967758;28;20073;-89
2021/01/18 06:33:10;;;;;;;;;;;-19.40;60.90;;;;;;5007547;28;20042;-88
2021/01/18 06:35:36;;;;;;;241.35;76.32;;;-19.50;61.50;;;;;;5013715;28;19980;-89
2021/01/18 06:38:04;;;;;;;258.48;76.97;;;-19.60;63.10;;;;;;5013213;28;20022;-90
2021/01/18 06:40:31;;;;;;;251.23;76.53;;;-19.50;62.80;;;;;;5005979;28;20030;-88
2021/01/18 06:42:58;;;;;;;244.02;77.88;;;-19.50;62.20;;;;;;5016389;28;20467;-88
2021/01/18 06:45:37;;;;;;;232.18;72.90;;;-19.30;62.00;;;;;;5014561;28;20037;-90
2021/01/18 06:48:05;;;;;;;248.13;77.60;;;-19.30;61.90;;;;;;5012903;28;20060;-88
2021/01/18 06:50:33;;;;;;;255.18;77.15;;;-19.30;62.30;;;;;;5028547;28;20025;-90
2021/01/18 06:53:14;;;;;;;297.27;85.18;;;-19.30;62.40;;;;;;5011676;28;20030;-88
2021/01/18 06:56:03;;;;;;;256.55;79.43;;;-19.40;62.10;;;;;;5015388;28;20118;-87
2021/01/18 06:58:35;;;;;;;258.23;78.45;;;-19.30;62.40;;;;;;5015783;28;20021;-90
2021/01/18 07:01:03;;;;;;;272.15;83.50;;;-19.30;61.80;;;;;;5028671;28;20052;-86
2021/01/18 07:03:42;;;;;;;263.25;80.43;;;-19.30;61.90;;;;;;5030243;28;20089;-87
2021/01/18 07:06:31;;;;;;;250.70;79.07;;;-19.40;62.20;;;;;;5012967;28;20134;-86
2021/01/18 07:08:59;;;;;;;264.97;82.33;;;-19.30;63.20;;;;;;5030566;28;20013;-87
2021/01/18 07:11:25;;;;;;;269.52;80.97;;;-19.20;63.20;;;;;;5018848;28;20379;-86
2021/01/18 07:13:51;;;;;;;242.57;78.57;;;-19.20;62.60;;;;;;5012479;28;20108;-87
2021/01/18 07:16:19;;;;;;;277.00;83.03;;;-19.10;62.60;;;;;;5014594;28;20120;-86
2021/01/18 07:18:56;;;;;;;301.00;78.50;;;-18.90;62.70;;;;;;5029644;28;20018;-87
2021/01/18 07:21:26;;;;;;;247.15;75.72;;;-18.80;62.00;;;;;;5029384;28;20018;-87
2021/01/18 07:23:59;;;;;;;247.45;76.05;;;-18.70;61.40;;;;;;5008393;28;20025;-87
2021/01/18 07:26:37;;;;;;;267.33;79.07;;;-18.60;61.60;;;;;;5001138;28;20833;-86
2021/01/18 07:29:06;;;;;;;229.32;78.05;;;-18.50;62.00;;;;;;5027202;28;20036;-87
2021/01/18 07:31:34;;;;;;;265.05;83.18;;;-18.50;63.40;;;;;;5010690;28;20025;-86
2021/01/18 07:34:01;;;;;;;260.30;76.90;;;-18.60;63.60;;;;;;5011673;28;20060;-88
2021/01/18 07:36:28;;;;;;;226.48;73.15;;;-18.30;62.60;;;;;;5026017;28;20029;-88
2021/01/18 07:38:59;;;;;;;260.05;76.53;;;-18.20;62.40;;;;;;5010924;28;20495;-87
2021/01/18 07:41:45;;;;;;;233.52;78.75;;;-18.10;62.90;;;;;;5035898;28;20021;-88
2021/01/18 07:44:37;;;;;;;231.45;75.00;;;-17.80;63.60;;;;;;5023129;28;20100;-88
2021/01/18 07:47:05;;;;;;;289.73;78.47;;;-17.80;63.80;;;;;;5012022;28;20072;-88
2021/01/18 07:49:51;;;;;;;261.17;80.60;;;-17.80;63.10;;;;;;5014721;28;20368;-88
2021/01/18 07:52:28;;;;;;;244.18;77.70;;;-17.80;65.10;;;;;;5021693;28;20114;-88
2021/01/18 07:55:01;;;;;;;254.73;77.63;;;-17.70;66.00;;;;;;5031837;28;20034;-88
2021/01/18 07:57:30;;;;;;;257.45;81.57;;;-17.70;66.20;;;;;;5016602;28;20037;-89
2021/01/18 08:00:18;;;;;;;264.67;82.13;;;-17.70;66.70;;;;;;5039837;28;20108;-88
2021/01/18 08:02:53;;;;;;;257.77;83.05;;;-17.50;68.00;;;;;;5022710;28;20495;-88
2021/01/18 08:05:26;;;;;;;279.38;83.32;;;-17.50;68.20;;;;;;5009447;28;20025;-90
2021/01/18 08:08:04;;;;;;;258.38;81.35;;;-17.40;68.40;;;;;;5024517;28;20200;-89
2021/01/18 08:10:53;;;;;;;247.73;79.70;;;-17.20;68.60;;;;;;5014124;28;20029;-90
2021/01/18 08:13:38;;;;;;;270.65;83.78;;;-16.90;66.50;;;;;;5030611;28;20041;-89
2021/01/18 08:16:18;;;;;;;258.67;85.70;;;-16.70;66.40;;;;;;5014034;28;20041;-89
2021/01/18 08:19:06;;;;;;;261.40;85.28;;;-16.70;67.80;;;;;;5014313;28;20021;-89
2021/01/18 08:21:45;;;;;;;268.95;83.43;;;-16.60;69.10;;;;;;5031927;28;20473;-90
2021/01/18 08:24:36;;;;;;;298.70;85.82;;;-16.50;71.50;;;;;;5033759;28;20053;-88
2021/01/18 08:27:07;;;;;;;273.95;86.88;;;-16.50;69.10;;;;;;5037464;28;20076;-89
2021/01/18 08:29:40;;;;;;;278.77;87.38;;;-16.30;69.20;;;;;;5016174;28;20372;-89
2021/01/18 08:32:31;;;;;;;314.65;98.90;;;-16.20;70.80;;;;;;5013340;28;20102;-89
2021/01/18 08:35:29;;;;;;;301.30;94.18;;;-16.20;72.00;;;;;;5032719;28;20033;-89
2021/01/18 08:38:00;;;;;;;280.38;92.40;;;-16.00;73.20;;;;;;5031248;28;20033;-89
2021/01/18 08:41:02;;;;;;;315.90;100.30;;;-15.90;73.80;;;;;;5020319;28;20119;-88
2021/01/18 08:43:47;;;;;;;302.35;98.97;;;-15.80;74.30;;;;;;4988939;28;20034;-89
2021/01/18 08:46:42;;;;;;;283.60;93.60;;;-15.60;76.00;;;;;;4974650;28;20061;-88
2021/01/18 08:49:21;;;;;;;313.52;98.00;;;-15.40;75.80;;;;;;4955699;28;20070;-88
2021/01/18 08:51:47;;;;;;;312.42;95.30;;;-15.30;75.60;;;;;;4966002;28;20064;-88
2021/01/18 08:54:37;;;;;;;284.67;91.53;;;-15.10;76.20;;;;;;4970725;28;20039;-88
2021/01/18 08:57:38;;;;;;;278.58;92.70;;;-15.00;76.90;;;;;;4969452;28;20425;-88
2021/01/18 09:00:09;;;;;;;233.10;81.65;;;-14.70;78.80;;;;;;4952957;28;20101;-88
2021/01/18 09:02:36;;;;;;;240.63;84.20;;;-14.70;78.70;;;;;;4968209;28;20125;-86
2021/01/18 09:05:21;;;;;;;251.40;84.05;;;-14.50;78.10;;;;;;4970731;28;20027;-89
2021/01/18 09:07:51;;;;;;;235.70;79.38;;;-14.30;78.50;;;;;;4968007;28;20531;-87
2021/01/18 09:10:28;;;;;;;245.10;88.35;;;-14.10;78.30;;;;;;4968899;28;20027;-87
2021/01/18 09:13:17;;;;;;;;;;;;;;;;;;;;;
2021/01/18 09:16:05;;;;;;;238.68;86.82;;;-13.90;78.10;;;;;;4953469;28;20065;-88
2021/01/18 09:18:32;;;;;;;225.80;82.43;;;-13.70;79.10;;;;;;4963760;28;20443;-86
2021/01/18 09:20:59;;;;;;;223.85;83.00;;;-13.50;78.10;;;;;;4973886;28;20038;-85
2021/01/18 09:23:25;;;;;;;241.65;84.38;;;-13.40;78.60;;;;;;4972766;28;20036;-88
2021/01/18 09:26:07;;;;;;;235.88;82.85;;;-13.30;78.70;;;;;;4998306;28;20041;-88
2021/01/18 09:28:33;;;;;;;222.52;84.05;;;-13.10;78.20;;;;;;5031033;28;20050;-88
2021/01/18 09:31:10;;;;;;;245.20;88.15;;;-13.00;77.70;;;;;;5029398;28;20029;-88
2021/01/18 09:33:35;;;;;;;247.57;85.20;;;-13.00;78.20;;;;;;5029638;28;20021;-89
2021/01/18 09:36:01;;;;;;;230.23;82.45;;;-12.90;78.40;;;;;;5031037;28;20039;-88
2021/01/18 09:38:27;;;;;;;227.43;79.57;;;-12.80;77.60;;;;;;5040450;28;20037;-88
2021/01/18 09:40:53;;;;;;;232.25;85.00;;;-12.60;78.90;;;;;;5031959;28;20022;-87
2021/01/18 09:43:20;;;;;;;221.52;82.53;;;-12.60;78.50;;;;;;5032815;28;20103;-89
2021/01/18 09:45:57;;;;;;;222.68;83.78;;;-12.50;78.10;;;;;;5018467;28;20083;-88
2021/01/18 09:48:26;;;;;;;228.60;84.93;;;-12.40;78.50;;;;;;5024983;28;20027;-89
2021/01/18 09:51:02;;;;;;;212.38;80.10;;;-12.30;77.90;;;;;;5023070;28;20593;-87
2021/01/18 09:53:47;;;;;;;209.60;80.65;;;-12.30;77.00;;;;;;5033061;28;20032;-88
2021/01/18 09:56:16;;;;;;;215.27;81.47;;;-12.20;77.50;;;;;;5032421;28;20036;-88
2021/01/18 09:58:46;;;;;;;224.50;81.55;;;-12.20;76.30;;;;;;5023693;28;20025;-89
2021/01/18 10:01:15;;;;;;;203.82;83.60;;;-12.00;77.80;;;;;;5042797;28;20052;-86
2021/01/18 10:03:42;;;;;;;217.38;82.13;;;-12.00;76.60;;;;;;5031856;28;20021;-88
2021/01/18 10:06:14;;;;;;;226.45;85.93;;;-12.00;77.20;;;;;;5029021;28;20029;-89
2021/01/18 10:08:44;;;;;;;234.23;82.65;;;-11.90;77.80;;;;;;5032463;28;20099;-89
2021/01/18 10:11:10;;;;;;;216.63;79.57;;;-11.80;77.20;;;;;;5009713;28;20044;-88
2021/01/18 10:13:36;;;;;;;234.10;81.38;;;-11.80;76.70;;;;;;5038431;28;20029;-87
2021/01/18 10:16:07;;;;;;;210.85;79.78;;;-11.80;77.00;;;;;;5028648;28;20108;-88
2021/01/18 10:18:47;;;;;;;202.90;76.90;;;-11.70;77.60;;;;;;5030638;28;20071;-87
2021/01/18 10:21:13;;;;;;;182.15;74.10;;;-11.60;77.30;;;;;;5028717;28;20033;-88
2021/01/18 10:23:45;;;;;;;201.73;77.90;;;-11.60;76.70;;;;;;5035150;28;20060;-87
2021/01/18 10:26:27;;;;;;;192.07;75.97;;;-11.50;77.60;;;;;;5026533;28;20471;-88
2021/01/18 10:28:59;;;;;;;185.73;69.68;;;-11.40;77.00;;;;;;5030838;28;20061;-89
2021/01/18 10:31:29;;;;;;;189.27;76.25;;;-11.40;76.80;;;;;;5032308;28;20069;-88
2021/01/18 10:34:10;;;;;;;;;;;-11.30;76.60;;;;;;5031684;28;20444;-88
2021/01/18 10:36:36;;;;;;;183.85;68.90;;;-11.30;76.90;;;;;;5028561;28;20373;-88
2021/01/18 10:39:02;;;;;;;182.95;71.18;;;-11.30;76.60;;;;;;5030797;28;20018;-88
2021/01/18 10:41:32;;;;;;;186.85;74.68;;;-11.20;77.40;;;;;;5029721;28;20101;-89
2021/01/18 10:44:07;;;;;;;203.10;78.43;;;-11.20;77.40;;;;;;5030393;28;20440;-88
2021/01/18 10:46:33;;;;;;;208.52;71.38;;;-11.20;77.20;;;;;;5030875;28;20467;-90
2021/01/18 10:49:00;;;;;;;201.82;75.80;;;-11.20;76.70;;;;;;5034712;28;20480;-88
2021/01/18 10:51:29;;;;;;;196.27;73.72;;;-11.20;77.30;;;;;;5027736;28;20030;-88
2021/01/18 10:53:57;;;;;;;189.07;71.50;;;-11.10;78.20;;;;;;5029493;28;20033;-88
2021/01/18 10:56:31;;;;;;;186.38;73.18;;;-11.10;77.30;;;;;;5010430;28;20030;-89
2021/01/18 10:58:57;;;;;;;190.57;71.35;;;-10.90;77.80;;;;;;5030431;28;20548;-88
2021/01/18 11:01:23;;;;;;;195.30;75.53;;;-10.90;77.70;;;;;;5035041;28;20037;-89
2021/01/18 11:03:49;;;;;;;172.45;67.93;;;-10.90;76.90;;;;;;5034546;28;20037;-88
2021/01/18 11:06:17;;;;;;;185.43;73.80;;;-10.80;77.30;;;;;;5031850;28;20041;-89
2021/01/18 11:08:43;;;;;;;192.30;73.10;;;-10.90;76.70;;;;;;5031529;28;20029;-88
2021/01/18 11:11:26;;;;;;;185.50;73.68;;;-10.90;77.00;;;;;;5029854;28;20103;-88
2021/01/18 11:14:06;;;;;;;187.95;73.05;;;-11.00;76.40;;;;;;5013278;28;20120;-88
2021/01/18 11:16:33;;;;;;;193.18;74.20;;;-10.90;77.80;;;;;;5015718;28;20022;-88
2021/01/18 11:19:03;;;;;;;185.93;71.63;;;-10.90;77.40;;;;;;5030042;28;20033;-89
2021/01/18 11:21:29;;;;;;;;;;;-10.70;76.90;;;;;;5030678;28;20025;-88
2021/01/18 11:23:56;;;;;;;186.95;69.50;;;-10.60;76.10;;;;;;5031925;28;19935;-88
2021/01/18 11:26:22;;;;;;;197.77;73.25;;;-10.50;75.50;;;;;;5031896;28;20041;-89
2021/01/18 11:28:48;;;;;;;202.13;75.22;;;-10.40;76.60;;;;;;5013321;28;20041;-88
2021/01/18 11:31:14;;;;;;;186.43;73.05;;;-10.40;76.20;;;;;;5031356;28;20029;-87
2021/01/18 11:33:40;;;;;;;187.35;75.90;;;-10.30;75.20;;;;;;5017560;28;20466;-88
2021/01/18 11:36:06;;;;;;;185.23;75.05;;;-10.30;75.30;;;;;;5018903;28;20040;-88
2021/01/18 11:38:32;;;;;;;185.18;74.00;;;-10.40;74.70;;;;;;5038504;28;20024;-87
2021/01/18 11:40:57;;;;;;;176.55;67.15;;;-10.40;75.00;;;;;;5032297;28;20522;-88
2021/01/18 11:43:23;;;;;;;172.57;70.45;;;-10.30;75.00;;;;;;5033326;28;20033;-88
2021/01/18 11:45:49;;;;;;;177.55;67.95;;;-10.20;74.10;;;;;;5027936;28;20037;-89
2021/01/18 11:48:14;;;;;;;172.60;69.30;;;-10.10;74.50;;;;;;5011659;28;20458;-88
2021/01/18 11:50:40;;;;;;;168.75;66.47;;;-10.10;74.20;;;;;;5011136;28;20044;-88
2021/01/18 11:53:07;;;;;;;169.40;68.95;;;-10.00;74.20;;;;;;5028460;28;20064;-88
2021/01/18 11:55:33;;;;;;;185.80;70.72;;;-9.90;73.70;;;;;;5018552;28;20434;-88
2021/01/18 11:57:58;;;;;;;172.65;71.10;;;-9.90;72.60;;;;;;5026919;28;20445;-87
2021/01/18 12:00:27;;;;;;;183.45;72.90;;;-10.00;73.20;;;;;;5031890;28;20033;-89
2021/01/18 12:02:57;;;;;;;179.20;72.85;;;-9.90;73.40;;;;;;5027658;28;20022;-89
2021/01/18 12:05:25;;;;;;;183.30;71.53;;;-10.00;73.70;;;;;;5027746;28;20053;-89
2021/01/18 12:08:02;;;;;;;175.52;70.47;;;-10.00;75.30;;;;;;5037890;28;20039;-89
2021/01/18 12:10:29;;;;;;;175.38;72.38;;;-10.00;75.40;;;;;;5028504;28;20029;-89
2021/01/18 12:12:55;;;;;;;183.63;75.55;;;-10.00;75.30;;;;;;5029839;28;20037;-89
2021/01/18 12:15:21;;;;;;;190.95;73.03;;;-9.90;75.10;;;;;;5030160;28;20375;-89
2021/01/18 12:17:47;;;;;;;194.07;77.93;;;-9.90;74.90;;;;;;5029387;28;20125;-89
2021/01/18 12:20:18;;;;;;;189.65;73.93;;;-9.90;75.20;;;;;;5010183;28;20036;-89
2021/01/18 12:22:44;;;;;;;193.40;74.95;;;-10.00;74.50;;;;;;5030246;28;20455;-89
2021/01/18 12:25:11;;;;;;;179.25;70.45;;;-10.00;75.40;;;;;;5034564;28;20033;-89
2021/01/18 12:27:37;;;;;;;183.38;70.65;;;-10.00;75.70;;;;;;5034959;28;20525;-89
2021/01/18 12:30:04;;;;;;;171.32;72.82;;;-10.00;75.40;;;;;;5031559;28;20017;-88
2021/01/18 12:32:29;;;;;;;165.90;68.72;;;-10.00;75.20;;;;;;5029771;28;20080;-88